Time;durP1;ratioP1;P1;durP2;ratioP2;P2;SDS_P1;SDS_P2;PMS_P1;PMS_P2;Temp;Humidity;BMP_temperature;BMP_pressure;BME280_temperature;BME280_humidity;BME280_pressure;Samples;Min_cycle;Max_cycle;Signal;HPM_P1;HPM_P2
2022/05/17 00:00:39;;;;;;;4.53;4.03;;;16.40;99.90;;;;;;5010263;28;20190;-57
2022/05/17 00:03:05;;;;;;;4.43;3.87;;;16.30;99.90;;;;;;5010107;28;20629;-55
2022/05/17 00:05:31;;;;;;;4.40;3.30;;;16.40;99.90;;;;;;5010428;28;20552;-57
2022/05/17 00:07:56;;;;;;;4.33;3.87;;;16.30;99.90;;;;;;5010546;28;20719;-57
2022/05/17 00:10:23;;;;;;;4.07;3.77;;;16.40;99.90;;;;;;5009082;28;20201;-57
2022/05/17 00:12:50;;;;;;;4.82;3.75;;;16.40;99.90;;;;;;5008790;28;20650;-56
2022/05/17 00:15:17;;;;;;;4.35;3.80;;;16.40;99.90;;;;;;5010335;28;20652;-57
2022/05/17 00:17:43;;;;;;;4.95;3.45;;;16.30;99.90;;;;;;5009652;28;20581;-57
2022/05/17 00:20:10;;;;;;;4.30;4.00;;;16.20;99.90;;;;;;5010107;28;20182;-57
2022/05/17 00:22:36;;;;;;;4.63;3.78;;;16.00;99.90;;;;;;5010627;28;20246;-57
2022/05/17 00:25:03;;;;;;;3.70;3.40;;;16.10;99.90;;;;;;5009936;28;20189;-57
2022/05/17 00:27:28;;;;;;;4.32;3.92;;;16.20;99.90;;;;;;5010398;28;20210;-56
2022/05/17 00:29:54;;;;;;;4.87;3.87;;;16.00;99.90;;;;;;5010581;28;20209;-57
2022/05/17 00:32:19;;;;;;;4.00;3.60;;;15.90;99.90;;;;;;5013811;28;20644;-57
2022/05/17 00:34:46;;;;;;;3.70;3.40;;;15.90;99.90;;;;;;5014212;28;20301;-56
2022/05/17 00:37:13;;;;;;;4.18;3.78;;;15.80;99.90;;;;;;5014072;28;20273;-56
2022/05/17 00:39:39;;;;;;;4.50;3.88;;;15.80;99.90;;;;;;5014000;28;20242;-56
2022/05/17 00:42:06;;;;;;;4.07;3.77;;;15.70;99.90;;;;;;5013800;28;20188;-57
2022/05/17 00:44:44;;;;;;;4.00;3.60;;;15.70;99.90;;;;;;5013542;28;20467;-56
2022/05/17 00:47:21;;;;;;;4.10;3.45;;;15.70;99.90;;;;;;5013895;28;20702;-56
2022/05/17 00:49:57;;;;;;;5.70;3.20;;;15.60;99.90;;;;;;5013973;28;20201;-57
2022/05/17 00:52:40;;;;;;;5.47;3.72;;;15.80;99.90;;;;;;5013811;28;20187;-57
2022/05/17 00:55:19;;;;;;;4.60;4.18;;;15.60;99.90;;;;;;5013733;28;20280;-57
2022/05/17 00:57:54;;;;;;;4.95;4.45;;;15.80;99.90;;;;;;5013734;28;20233;-56
2022/05/17 01:00:20;;;;;;;4.30;3.90;;;15.70;99.90;;;;;;5013228;28;20182;-57
2022/05/17 01:02:53;;;;;;;4.15;3.60;;;15.40;99.90;;;;;;5013664;28;20262;-58
2022/05/17 01:05:21;;;;;;;5.80;4.20;;;15.40;99.90;;;;;;5013631;28;20312;-55
2022/05/17 01:07:55;;;;;;;3.90;3.60;;;15.50;99.90;;;;;;5013563;28;20214;-56
2022/05/17 01:10:22;;;;;;;7.40;4.30;;;15.80;99.90;;;;;;5013156;28;20610;-56
2022/05/17 01:14:57;;;;;;;7.03;4.30;;;15.80;99.90;;;;;;5013802;28;20190;-57
2022/05/17 01:15:35;;;;;;;4.30;3.90;;;15.50;99.90;;;;;;5012359;28;20202;-55
2022/05/17 01:18:01;;;;;;;4.40;3.38;;;15.70;99.90;;;;;;5013374;28;20215;-57
2022/05/17 01:20:27;;;;;;;4.28;3.58;;;15.60;99.90;;;;;;5005967;28;20180;-57
2022/05/17 01:22:53;;;;;;;5.13;4.00;;;15.70;99.90;;;;;;5009658;28;20197;-56
2022/05/17 01:25:19;;;;;;;4.03;3.70;;;15.70;99.90;;;;;;5013684;28;20441;-57
2022/05/17 01:28:04;;;;;;;4.35;3.53;;;15.70;99.90;;;;;;5013024;28;20281;-57
2022/05/17 01:30:32;;;;;;;4.18;3.75;;;15.50;99.90;;;;;;5011371;28;20196;-56
2022/05/17 01:32:57;;;;;;;4.10;3.70;;;15.50;99.90;;;;;;5013469;28;20505;-57
2022/05/17 01:35:23;;;;;;;5.60;4.33;;;15.60;99.90;;;;;;5013094;28;20278;-57
2022/05/17 01:37:50;;;;;;;4.40;4.00;;;15.60;99.90;;;;;;5010676;28;20717;-57
2022/05/17 01:40:16;;;;;;;5.78;3.70;;;15.70;99.90;;;;;;5012323;28;20278;-57
2022/05/17 01:42:42;;;;;;;6.38;3.80;;;15.50;99.90;;;;;;5012443;28;20179;-57
2022/05/17 01:45:08;;;;;;;5.23;4.20;;;15.60;99.90;;;;;;5011557;28;20209;-57
2022/05/17 01:47:34;;;;;;;5.72;4.38;;;15.40;99.90;;;;;;5012667;28;20568;-57
2022/05/17 01:50:00;;;;;;;4.97;3.97;;;15.50;99.90;;;;;;5012537;28;20179;-58
2022/05/17 01:52:25;;;;;;;3.87;3.57;;;15.50;99.90;;;;;;5013144;28;20187;-57
2022/05/17 01:54:51;;;;;;;3.63;3.33;;;15.40;99.90;;;;;;5011936;28;20249;-56
2022/05/17 01:57:16;;;;;;;4.77;3.40;;;15.40;99.90;;;;;;5012657;28;20214;-57
2022/05/17 01:59:42;;;;;;;7.17;4.20;;;15.40;99.90;;;;;;5011809;28;20179;-57
2022/05/17 02:02:08;;;;;;;4.93;4.43;;;15.50;99.90;;;;;;5011278;28;20237;-57
2022/05/17 02:04:34;;;;;;;4.30;3.70;;;15.40;99.90;;;;;;5012209;28;20187;-57
2022/05/17 02:07:00;;;;;;;4.10;3.80;;;15.20;99.90;;;;;;5011774;28;20250;-56
2022/05/17 02:09:25;;;;;;;4.82;3.50;;;15.30;99.90;;;;;;5011799;28;20663;-56
2022/05/17 02:11:51;;;;;;;3.80;3.20;;;15.40;99.90;;;;;;5012986;28;20241;-56
2022/05/17 02:14:17;;;;;;;4.33;3.93;;;15.20;99.90;;;;;;5011206;28;20686;-56
2022/05/17 02:16:43;;;;;;;9.63;4.15;;;15.10;99.90;;;;;;5012230;28;20183;-57
2022/05/17 02:19:09;;;;;;;4.43;4.03;;;15.10;99.90;;;;;;5012624;28;20183;-56
2022/05/17 02:21:36;;;;;;;4.53;3.60;;;15.00;99.90;;;;;;5012555;28;20509;-56
2022/05/17 02:24:05;;;;;;;4.30;3.80;;;15.20;99.90;;;;;;5011499;28;20536;-56
2022/05/17 02:26:31;;;;;;;6.05;3.47;;;15.00;99.90;;;;;;5012373;28;20712;-56
2022/05/17 02:28:57;;;;;;;3.95;3.55;;;15.20;99.90;;;;;;5011295;28;20294;-56
2022/05/17 02:31:23;;;;;;;3.83;3.50;;;15.20;99.90;;;;;;5011159;28;20273;-58
2022/05/17 02:33:49;;;;;;;5.00;4.17;;;14.80;99.90;;;;;;5010820;28;20441;-58
2022/05/17 02:36:15;;;;;;;4.87;3.97;;;14.80;99.90;;;;;;5001304;28;20563;-55
2022/05/17 02:38:40;;;;;;;3.73;3.43;;;15.10;99.90;;;;;;5006706;28;20301;-58
2022/05/17 02:41:07;;;;;;;5.63;4.20;;;15.00;99.90;;;;;;5003851;28;20186;-59
2022/05/17 02:43:33;;;;;;;4.97;4.15;;;14.90;99.90;;;;;;5011545;28;20433;-57
2022/05/17 02:45:59;;;;;;;4.10;3.75;;;14.80;99.90;;;;;;5010709;28;20186;-57
2022/05/17 02:48:24;;;;;;;5.57;3.50;;;14.80;99.90;;;;;;5012103;28;20206;-57
2022/05/17 02:50:50;;;;;;;3.70;3.37;;;14.90;99.90;;;;;;5009178;28;20190;-57
2022/05/17 02:53:16;;;;;;;4.93;4.33;;;14.80;99.90;;;;;;5005826;28;20191;-58
2022/05/17 02:55:41;;;;;;;5.40;3.40;;;14.80;99.90;;;;;;5011304;28;20732;-58
2022/05/17 02:58:07;;;;;;;4.57;4.07;;;14.70;99.90;;;;;;5011721;28;20225;-58
2022/05/17 03:00:33;;;;;;;3.70;3.40;;;14.70;99.90;;;;;;5011055;28;20217;-58
2022/05/17 03:02:58;;;;;;;5.13;4.07;;;14.90;99.90;;;;;;5010058;28;20199;-58
2022/05/17 03:05:24;;;;;;;4.77;4.33;;;14.60;99.90;;;;;;5010800;28;20215;-55
2022/05/17 03:07:50;;;;;;;4.20;3.90;;;14.70;99.90;;;;;;5011439;28;20207;-56
2022/05/17 03:10:17;;;;;;;4.70;4.30;;;14.60;99.90;;;;;;5010930;28;20187;-58
2022/05/17 03:12:43;;;;;;;4.78;4.03;;;14.60;99.90;;;;;;5008302;28;20182;-55
2022/05/17 03:15:12;;;;;;;5.55;4.43;;;14.60;99.90;;;;;;5010293;28;20194;-56
2022/05/17 03:17:38;;;;;;;4.40;4.00;;;14.60;99.90;;;;;;5011129;28;20223;-56
2022/05/17 03:20:05;;;;;;;4.33;3.93;;;14.80;99.90;;;;;;5010781;28;20183;-57
2022/05/17 03:22:30;;;;;;;3.60;3.30;;;14.50;99.90;;;;;;5010475;28;20820;-57
2022/05/17 03:24:56;;;;;;;3.70;3.40;;;14.60;99.90;;;;;;5011007;28;20293;-58
2022/05/17 03:27:22;;;;;;;5.03;4.53;;;14.40;99.90;;;;;;5011080;28;20298;-56
2022/05/17 03:29:47;;;;;;;5.93;4.03;;;14.70;99.90;;;;;;5010103;28;20179;-56
2022/05/17 03:32:13;;;;;;;6.20;4.20;;;14.50;99.90;;;;;;5010887;28;20202;-56
2022/05/17 03:34:39;;;;;;;5.90;4.47;;;14.30;99.90;;;;;;5007345;28;20191;-56
2022/05/17 03:37:05;;;;;;;6.23;4.87;;;14.50;99.90;;;;;;5004870;28;20477;-56
2022/05/17 03:39:30;;;;;;;6.33;4.97;;;14.50;99.90;;;;;;5006359;28;20187;-58
2022/05/17 03:41:56;;;;;;;18.77;10.63;;;14.50;99.90;;;;;;5010600;28;20183;-58
2022/05/17 03:44:22;;;;;;;6.43;4.80;;;14.40;99.90;;;;;;5008631;28;20179;-59
2022/05/17 03:46:47;;;;;;;4.73;4.37;;;14.10;99.90;;;;;;5010443;28;20720;-58
2022/05/17 03:49:13;;;;;;;5.97;4.47;;;14.50;99.90;;;;;;5010100;28;20186;-56
2022/05/17 03:51:39;;;;;;;5.23;4.73;;;14.50;99.90;;;;;;5011124;28;20186;-55
2022/05/17 03:54:05;;;;;;;6.95;4.30;;;14.20;99.90;;;;;;5010875;28;20713;-56
2022/05/17 03:56:31;;;;;;;5.37;4.60;;;14.20;99.90;;;;;;5006999;28;20202;-58
2022/05/17 03:58:57;;;;;;;4.63;4.23;;;14.40;99.90;;;;;;5008590;28;20843;-55
2022/05/17 04:01:22;;;;;;;5.10;4.70;;;14.40;99.90;;;;;;5006545;28;20214;-56
2022/05/17 04:03:48;;;;;;;5.10;4.20;;;14.50;99.90;;;;;;5009014;28;20671;-56
2022/05/17 04:06:14;;;;;;;4.77;4.43;;;14.50;99.90;;;;;;5008547;28;20265;-56
2022/05/17 04:08:40;;;;;;;6.10;4.80;;;14.70;99.90;;;;;;5009198;28;20618;-56
2022/05/17 04:11:06;;;;;;;4.88;4.28;;;14.50;99.90;;;;;;5008215;28;20187;-56
2022/05/17 04:13:32;;;;;;;4.78;4.38;;;14.60;99.90;;;;;;5004809;28;20202;-57
2022/05/17 04:15:59;;;;;;;12.35;5.53;;;14.50;99.90;;;;;;5008476;28;20187;-59
2022/05/17 04:18:25;;;;;;;4.60;4.20;;;14.40;99.90;;;;;;5009047;28;20226;-58
2022/05/17 04:20:56;;;;;;;5.60;5.18;;;14.60;99.90;;;;;;5007978;28;20265;-56
2022/05/17 04:23:21;;;;;;;7.85;4.50;;;14.60;99.90;;;;;;5008697;28;20266;-57
2022/05/17 04:25:47;;;;;;;6.10;5.00;;;14.60;99.90;;;;;;5009112;28;20613;-57
2022/05/17 04:28:13;;;;;;;6.83;5.00;;;14.40;99.90;;;;;;5022972;28;20755;-58
2022/05/17 04:30:38;;;;;;;8.30;5.30;;;14.70;99.90;;;;;;5005602;28;20202;-58
2022/05/17 04:33:05;;;;;;;6.10;5.53;;;14.70;99.90;;;;;;5007840;28;20179;-55
2022/05/17 04:35:31;;;;;;;7.72;5.35;;;14.90;99.90;;;;;;5008661;28;20186;-58
2022/05/17 04:37:57;;;;;;;5.00;4.50;;;14.60;99.90;;;;;;5003697;28;20206;-58
2022/05/17 04:40:22;;;;;;;5.23;4.83;;;14.90;99.90;;;;;;5006816;28;20187;-57
2022/05/17 04:42:49;;;;;;;4.90;4.50;;;14.90;99.90;;;;;;5009655;28;20538;-58
2022/05/17 04:45:16;;;;;;;5.47;4.93;;;14.80;99.90;;;;;;5009659;28;20543;-57
2022/05/17 04:47:43;;;;;;;5.30;4.90;;;14.90;99.90;;;;;;5008747;28;20288;-57
2022/05/17 04:50:10;;;;;;;4.88;4.43;;;14.80;99.90;;;;;;5002178;28;20198;-62
2022/05/17 04:52:36;;;;;;;5.15;4.72;;;14.80;99.90;;;;;;5004198;28;20210;-60
2022/05/17 04:55:02;;;;;;;5.40;4.87;;;14.90;99.90;;;;;;5004523;28;20190;-59
2022/05/17 04:57:28;;;;;;;5.40;4.90;;;15.20;99.90;;;;;;5005488;28;20477;-59
2022/05/17 04:59:53;;;;;;;5.00;4.50;;;15.10;99.90;;;;;;5008477;28;20194;-62
2022/05/17 05:02:19;;;;;;;6.70;6.00;;;15.20;99.90;;;;;;5006913;28;20187;-63
2022/05/17 05:04:44;;;;;;;5.87;5.27;;;15.20;99.90;;;;;;5006914;28;20641;-64
2022/05/17 05:07:10;;;;;;;6.20;5.30;;;14.80;99.90;;;;;;5002964;28;20631;-58
2022/05/17 05:09:36;;;;;;;6.70;4.80;;;15.40;99.90;;;;;;5007130;28;20675;-60
2022/05/17 05:12:01;;;;;;;6.33;4.83;;;15.20;99.90;;;;;;5022704;28;20684;-67
2022/05/17 05:14:27;;;;;;;6.10;4.97;;;15.40;99.90;;;;;;5008202;28;20210;-68
2022/05/17 05:16:53;;;;;;;4.77;4.40;;;15.60;99.90;;;;;;5010683;28;20449;-67
2022/05/17 05:19:19;;;;;;;5.10;4.60;;;15.50;99.90;;;;;;5013675;28;20191;-66
2022/05/17 05:21:45;;;;;;;5.57;5.07;;;15.80;99.90;;;;;;5011540;28;20708;-64
2022/05/17 05:24:11;;;;;;;6.20;5.40;;;15.90;99.90;;;;;;5012416;28;20437;-62
2022/05/17 05:26:38;;;;;;;6.03;5.45;;;16.10;99.90;;;;;;5012547;28;20282;-64
2022/05/17 05:29:05;;;;;;;5.72;5.22;;;16.30;99.90;;;;;;5012503;28;20213;-62
2022/05/17 05:31:31;;;;;;;7.00;6.15;;;16.30;99.90;;;;;;5007323;28;20238;-62
2022/05/17 05:34:00;;;;;;;7.75;5.32;;;16.50;99.90;;;;;;5010848;28;20277;-62
2022/05/17 05:36:29;;;;;;;6.47;5.88;;;16.70;99.90;;;;;;5003516;28;20182;-61
2022/05/17 05:38:55;;;;;;;6.15;5.35;;;16.80;99.90;;;;;;5002863;28;20199;-61
2022/05/17 05:41:21;;;;;;;5.40;4.53;;;16.80;99.90;;;;;;5008348;28;20201;-61
2022/05/17 05:43:47;;;;;;;5.33;4.93;;;16.90;99.90;;;;;;5012057;28;20261;-62
2022/05/17 05:46:12;;;;;;;9.73;7.23;;;17.20;99.90;;;;;;5011128;28;20818;-61
2022/05/17 05:48:38;;;;;;;6.50;5.30;;;17.30;99.90;;;;;;5002133;28;20217;-61
2022/05/17 05:51:04;;;;;;;6.90;5.30;;;17.30;99.90;;;;;;5011096;28;20190;-61
2022/05/17 05:53:29;;;;;;;7.30;5.37;;;17.50;99.90;;;;;;5011047;28;20953;-60
2022/05/17 05:56:01;;;;;;;8.53;5.37;;;17.50;99.90;;;;;;5006640;28;20198;-61
2022/05/17 05:58:35;;;;;;;9.63;7.32;;;17.60;99.90;;;;;;5011416;28;20215;-61
2022/05/17 06:01:01;;;;;;;7.97;5.30;;;17.70;99.90;;;;;;5006588;28;20178;-61
2022/05/17 06:03:28;;;;;;;7.33;5.93;;;18.00;99.90;;;;;;5010752;28;20179;-61
2022/05/17 06:05:54;;;;;;;5.55;5.05;;;18.20;99.90;;;;;;5009554;28;20434;-61
2022/05/17 06:08:21;;;;;;;6.35;5.75;;;18.30;99.90;;;;;;5007182;28;20223;-61
2022/05/17 06:10:47;;;;;;;7.43;6.72;;;18.40;99.90;;;;;;5009992;28;20190;-61
2022/05/17 06:13:15;;;;;;;7.13;6.07;;;18.70;99.90;;;;;;5007015;28;20274;-65
2022/05/17 06:15:42;;;;;;;7.38;6.25;;;19.00;99.90;;;;;;5009571;28;20459;-65
2022/05/17 06:18:08;;;;;;;7.15;6.55;;;18.80;99.90;;;;;;5008923;28;20207;-65
2022/05/17 06:20:35;;;;;;;8.70;5.90;;;19.00;99.90;;;;;;5009782;28;20325;-66
2022/05/17 06:23:01;;;;;;;7.00;6.40;;;18.90;99.90;;;;;;5010559;28;20210;-64
2022/05/17 06:25:27;;;;;;;6.43;5.87;;;18.90;99.90;;;;;;5012307;28;20205;-67
2022/05/17 06:27:52;;;;;;;8.70;6.83;;;19.10;99.90;;;;;;5003899;28;20513;-74
2022/05/17 06:30:18;;;;;;;8.03;7.23;;;19.50;99.90;;;;;;5001500;28;20687;-75
2022/05/17 06:32:45;;;;;;;9.68;8.80;;;19.80;99.90;;;;;;5009500;28;20179;-68
2022/05/17 06:35:12;;;;;;;6.68;6.07;;;20.00;99.90;;;;;;5009166;28;20211;-67
2022/05/17 06:37:38;;;;;;;7.43;6.72;;;20.10;99.90;;;;;;5008876;28;20276;-66
2022/05/17 06:40:05;;;;;;;6.30;5.73;;;20.30;99.90;;;;;;5009058;28;20191;-66
2022/05/17 06:42:32;;;;;;;6.30;4.90;;;20.50;99.90;;;;;;5010475;28;20963;-67
2022/05/17 06:44:58;;;;;;;5.25;4.75;;;20.70;99.90;;;;;;5010042;28;20255;-67
2022/05/17 06:47:24;;;;;;;5.57;5.07;;;21.10;99.90;;;;;;5005557;28;20253;-65
2022/05/17 06:49:50;;;;;;;6.18;5.30;;;21.30;99.90;;;;;;5010565;28;20270;-66
2022/05/17 06:52:16;;;;;;;7.03;6.33;;;21.70;99.20;;;;;;5008866;28;20759;-69
2022/05/17 06:54:43;;;;;;;7.30;6.20;;;22.00;98.40;;;;;;5007700;28;20186;-67
2022/05/17 06:57:11;;;;;;;5.95;5.45;;;22.40;98.50;;;;;;5005570;28;20974;-66
2022/05/17 06:59:39;;;;;;;6.63;5.97;;;22.60;97.70;;;;;;5022395;28;20184;-64
2022/05/17 07:02:05;;;;;;;5.70;5.20;;;22.80;96.60;;;;;;5009221;28;20437;-59
2022/05/17 07:04:33;;;;;;;11.63;5.43;;;24.20;95.20;;;;;;5007092;28;20443;-65
2022/05/17 07:06:59;;;;;;;6.03;5.53;;;25.70;92.30;;;;;;5012207;28;20468;-64
2022/05/17 07:09:26;;;;;;;5.10;4.60;;;28.00;84.90;;;;;;5009914;28;20504;-66
2022/05/17 07:14:38;;;;;;;5.20;4.70;;;31.90;71.80;;;;;;5007159;28;20467;-68
2022/05/17 07:17:16;;;;;;;6.97;4.90;;;33.50;63.70;;;;;;5003322;28;20457;-68
2022/05/17 07:19:42;;;;;;;7.03;5.20;;;34.40;57.90;;;;;;5008209;28;20442;-68
2022/05/17 07:22:10;;;;;;;8.33;5.77;;;35.00;56.30;;;;;;5005657;28;20445;-73
2022/05/17 07:24:36;;;;;;;6.27;5.43;;;34.40;55.20;;;;;;5009641;28;20812;-59
2022/05/17 07:27:03;;;;;;;5.90;5.30;;;35.00;53.40;;;;;;5009382;28;20557;-61
2022/05/17 07:29:29;;;;;;;4.90;4.40;;;35.50;52.80;;;;;;5006912;28;20434;-59
2022/05/17 07:31:55;;;;;;;6.70;5.00;;;36.30;51.30;;;;;;5010991;28;20440;-59
2022/05/17 07:34:21;;;;;;;5.67;5.17;;;36.90;49.50;;;;;;5010045;28;20237;-60
2022/05/17 07:36:47;;;;;;;7.10;5.73;;;37.30;48.50;;;;;;5008941;28;20182;-60
2022/05/17 07:39:13;;;;;;;5.87;5.27;;;38.00;47.00;;;;;;5006651;28;20473;-67
2022/05/17 07:41:41;;;;;;;5.83;5.23;;;37.50;45.70;;;;;;5009265;28;21023;-68
2022/05/17 07:44:07;;;;;;;6.07;5.40;;;35.30;48.20;;;;;;5006010;28;20182;-68
2022/05/17 07:46:33;;;;;;;6.17;5.67;;;35.80;49.30;;;;;;5004245;28;20454;-58
2022/05/17 07:48:59;;;;;;;6.10;5.40;;;37.20;46.80;;;;;;5011700;28;20457;-67
2022/05/17 07:51:25;;;;;;;6.67;4.83;;;34.90;48.30;;;;;;5005557;28;20448;-67
2022/05/17 07:53:51;;;;;;;4.73;4.20;;;34.80;49.60;;;;;;5010019;28;20660;-68
2022/05/17 07:56:16;;;;;;;5.10;4.40;;;36.50;47.60;;;;;;5024428;28;20225;-63
2022/05/17 07:58:43;;;;;;;4.93;4.50;;;37.60;46.10;;;;;;5005418;28;20235;-62
2022/05/17 08:01:09;;;;;;;4.53;4.13;;;37.80;44.80;;;;;;5008360;28;20460;-63
2022/05/17 08:03:35;;;;;;;4.30;3.90;;;35.50;45.10;;;;;;5006289;28;20193;-63
2022/05/17 08:06:01;;;;;;;4.60;4.20;;;34.10;47.30;;;;;;5008685;28;20187;-63
2022/05/17 08:08:27;;;;;;;5.70;4.20;;;33.80;48.60;;;;;;5006760;28;20529;-67
2022/05/17 08:10:53;;;;;;;4.70;4.30;;;33.40;49.90;;;;;;5004408;28;20451;-65
2022/05/17 08:13:22;;;;;;;4.97;3.77;;;34.70;48.60;;;;;;5009153;28;20926;-63
2022/05/17 08:15:49;;;;;;;5.77;3.93;;;35.60;46.80;;;;;;5006654;28;20458;-62
2022/05/17 08:18:15;;;;;;;4.43;3.90;;;35.40;44.70;;;;;;5006679;28;20520;-65
2022/05/17 08:20:41;;;;;;;6.33;4.07;;;35.40;46.40;;;;;;5007570;28;20500;-64
2022/05/17 08:23:08;;;;;;;4.90;3.70;;;35.10;45.50;;;;;;5007661;28;20813;-66
2022/05/17 08:28:18;;;;;;;5.10;3.27;;;34.70;47.00;;;;;;5005943;28;20984;-65
2022/05/17 08:30:45;;;;;;;4.60;3.77;;;35.30;45.50;;;;;;5006875;28;20442;-64
2022/05/17 08:33:16;;;;;;;3.43;2.90;;;34.60;46.30;;;;;;5009996;28;20449;-69
2022/05/17 08:36:00;;;;;;;3.73;3.43;;;34.20;46.20;;;;;;5006049;28;20441;-64
2022/05/17 08:38:38;;;;;;;4.30;3.80;;;34.00;47.00;;;;;;5004543;28;20529;-70
2022/05/17 08:41:11;;;;;;;3.73;3.30;;;35.80;44.90;;;;;;5008827;28;20469;-70
2022/05/17 08:43:51;;;;;;;5.40;3.40;;;36.20;44.80;;;;;;5022970;28;20528;-72
2022/05/17 08:46:42;;;;;;;4.43;4.03;;;36.30;43.30;;;;;;5009088;28;20540;-66
2022/05/17 08:49:24;;;;;;;3.70;3.33;;;35.60;43.70;;;;;;5005817;28;20446;-65
2022/05/17 08:52:21;;;;;;;4.10;3.80;;;35.00;44.50;;;;;;5009689;28;20499;-66
2022/05/17 08:54:54;;;;;;;4.93;3.50;;;35.00;44.60;;;;;;5011225;28;20444;-66
2022/05/17 08:57:47;;;;;;;4.37;3.97;;;34.20;46.10;;;;;;5007575;28;20820;-66
2022/05/17 09:00:23;;;;;;;5.47;4.10;;;34.70;46.20;;;;;;5004172;28;20888;-66
2022/05/17 09:02:57;;;;;;;4.30;3.80;;;33.70;46.20;;;;;;5010714;28;20444;-66
2022/05/17 09:05:33;;;;;;;10.70;3.77;;;32.90;47.60;;;;;;5006137;28;20536;-65
2022/05/17 09:08:35;;;;;;;6.77;3.77;;;33.70;47.50;;;;;;5011341;28;20465;-65
2022/05/17 09:11:10;;;;;;;3.73;3.43;;;34.50;47.20;;;;;;5011010;28;20449;-65
2022/05/17 09:13:55;;;;;;;5.30;3.43;;;35.70;44.10;;;;;;5010371;28;20507;-65
2022/05/17 09:16:23;;;;;;;4.20;3.77;;;36.30;43.30;;;;;;5008124;28;20464;-65
2022/05/17 09:18:50;;;;;;;5.93;3.47;;;36.00;43.40;;;;;;5012420;28;20907;-65
2022/05/17 09:21:39;;;;;;;3.87;3.47;;;35.50;43.50;;;;;;5010576;28;20441;-72
2022/05/17 09:24:11;;;;;;;4.00;3.60;;;34.70;44.30;;;;;;5011862;28;20449;-70
2022/05/17 09:26:38;;;;;;;4.03;3.63;;;34.40;44.90;;;;;;5009914;28;20439;-70
2022/05/17 09:29:29;;;;;;;6.53;4.10;;;33.60;44.80;;;;;;5023308;28;20437;-67
2022/05/17 09:32:01;;;;;;;4.83;3.80;;;33.10;45.70;;;;;;5006195;28;20457;-65
2022/05/17 09:34:36;;;;;;;4.73;4.30;;;33.10;47.10;;;;;;5007411;28;20441;-68
2022/05/17 09:37:20;;;;;;;4.10;3.80;;;33.80;45.90;;;;;;5008680;28;20457;-66
2022/05/17 09:39:48;;;;;;;7.30;4.30;;;32.90;45.80;;;;;;5009399;28;20955;-67
2022/05/17 09:42:42;;;;;;;11.03;4.13;;;32.60;47.60;;;;;;5008705;28;20445;-70
2022/05/17 09:45:15;;;;;;;4.93;4.53;;;32.50;47.50;;;;;;5000079;28;20798;-68
2022/05/17 09:47:53;;;;;;;5.70;4.33;;;32.80;47.90;;;;;;5008798;28;20559;-70
2022/05/17 09:53:14;;;;;;;4.67;4.00;;;32.70;47.50;;;;;;5009691;28;20930;-69
2022/05/17 09:55:43;;;;;;;4.83;4.43;;;33.00;47.40;;;;;;5023275;28;20503;-66
2022/05/17 09:58:29;;;;;;;5.10;4.03;;;33.60;46.20;;;;;;5010114;28;20910;-65
2022/05/17 10:00:56;;;;;;;4.00;3.60;;;32.20;47.50;;;;;;5005459;28;20532;-71
2022/05/17 10:03:32;;;;;;;4.10;3.80;;;32.50;47.00;;;;;;5009529;28;20445;-74
2022/05/17 10:06:12;;;;;;;5.17;4.40;;;33.70;46.30;;;;;;5011511;28;20442;-65
2022/05/17 10:08:45;;;;;;;5.40;4.30;;;34.80;45.10;;;;;;5001549;28;21063;-70
2022/05/17 10:11:18;;;;;;;4.60;4.20;;;35.30;43.20;;;;;;5006505;28;20809;-63
2022/05/17 10:13:51;;;;;;;4.70;4.30;;;35.60;43.50;;;;;;5006893;28;20461;-63
2022/05/17 10:16:29;;;;;;;4.80;4.30;;;35.60;43.30;;;;;;5006710;28;20815;-64
2022/05/17 10:19:00;;;;;;;13.50;5.23;;;34.60;43.40;;;;;;5011734;28;20481;-63
2022/05/17 10:21:51;;;;;;;4.80;4.37;;;33.30;45.40;;;;;;5010875;28;20444;-64
2022/05/17 10:24:42;;;;;;;7.83;5.10;;;32.80;47.00;;;;;;5010929;28;20444;-61
2022/05/17 10:27:18;;;;;;;5.10;4.53;;;31.80;48.10;;;;;;5009372;28;20546;-62
2022/05/17 10:29:50;;;;;;;5.33;4.57;;;30.70;49.40;;;;;;5011059;28;20517;-62
2022/05/17 10:32:30;;;;;;;4.30;3.90;;;30.10;50.30;;;;;;5010813;28;20434;-63
2022/05/17 10:35:17;;;;;;;4.83;4.20;;;29.40;52.10;;;;;;5011663;28;20469;-61
2022/05/17 10:38:01;;;;;;;5.13;4.37;;;29.00;52.80;;;;;;5011500;28;20476;-62
2022/05/17 10:40:35;;;;;;;5.57;4.10;;;29.00;53.40;;;;;;5011612;28;20452;-62
2022/05/17 10:43:03;;;;;;;4.70;4.23;;;28.80;53.40;;;;;;5010655;28;20601;-62
2022/05/17 10:45:33;;;;;;;5.80;4.80;;;28.40;53.70;;;;;;5010801;28;20482;-63
2022/05/17 10:48:18;;;;;;;7.00;6.30;;;28.30;53.90;;;;;;5009801;28;20493;-63
2022/05/17 10:50:46;;;;;;;5.80;4.80;;;28.10;54.20;;;;;;5011267;28;20440;-62
2022/05/17 10:53:43;;;;;;;5.00;4.53;;;27.60;55.50;;;;;;5010119;28;20446;-62
2022/05/17 10:56:47;;;;;;;4.53;3.83;;;28.00;55.10;;;;;;5009252;28;20537;-63
2022/05/17 10:59:37;;;;;;;4.83;3.87;;;29.10;54.10;;;;;;5008063;28;20475;-64
2022/05/17 11:02:21;;;;;;;4.90;3.53;;;30.40;51.60;;;;;;5000644;28;20517;-63
2022/05/17 11:04:59;;;;;;;5.20;4.70;;;30.80;50.10;;;;;;5009526;28;20469;-63
2022/05/17 11:07:46;;;;;;;5.13;4.40;;;30.80;49.90;;;;;;5010564;28;20453;-63
2022/05/17 11:10:31;;;;;;;3.80;3.50;;;31.60;48.80;;;;;;5004827;28;20452;-63
2022/05/17 11:13:43;;;;;;;5.13;4.10;;;33.10;46.70;;;;;;5006412;28;20991;-63
2022/05/17 11:16:20;;;;;;;4.80;3.60;;;33.20;44.40;;;;;;5007152;28;20484;-63
2022/05/17 11:19:00;;;;;;;5.93;3.90;;;32.60;45.00;;;;;;5009960;28;20477;-63
2022/05/17 11:21:55;;;;;;;4.23;3.57;;;32.60;45.00;;;;;;5004200;28;20575;-65
2022/05/17 11:25:08;;;;;;;4.23;3.83;;;32.10;45.30;;;;;;4993690;28;20445;-64
2022/05/17 11:27:54;;;;;;;3.90;3.50;;;32.50;45.10;;;;;;5016611;28;21103;-64
2022/05/17 11:30:34;;;;;;;3.77;3.40;;;32.60;45.70;;;;;;5021054;28;20450;-65
2022/05/17 11:33:18;;;;;;;3.60;3.30;;;31.80;45.10;;;;;;5009150;28;20935;-65
2022/05/17 11:35:56;;;;;;;3.50;3.20;;;30.60;47.00;;;;;;5008344;28;20990;-66
2022/05/17 11:38:37;;;;;;;3.90;3.00;;;30.10;46.40;;;;;;5005798;28;20477;-70
2022/05/17 11:41:42;;;;;;;2.97;2.77;;;30.00;47.70;;;;;;5005970;28;20877;-68
2022/05/17 11:44:41;;;;;;;3.23;2.83;;;30.10;46.30;;;;;;5002412;28;20447;-67
2022/05/17 11:47:45;;;;;;;5.00;4.00;;;30.40;47.60;;;;;;4998387;28;20578;-66
2022/05/17 11:50:21;;;;;;;6.13;4.60;;;30.50;48.50;;;;;;5009904;28;20452;-65
2022/05/17 11:52:56;;;;;;;7.93;7.30;;;30.70;48.50;;;;;;5008989;28;20969;-72
2022/05/17 11:55:27;;;;;;;4.23;3.50;;;30.50;48.00;;;;;;5002275;28;20548;-66
2022/05/17 11:57:53;;;;;;;4.00;3.60;;;29.80;48.00;;;;;;5008566;28;20479;-64
2022/05/17 12:00:24;;;;;;;3.90;3.60;;;29.00;49.30;;;;;;5008283;28;20442;-70
2022/05/17 12:03:04;;;;;;;4.23;3.50;;;28.70;49.70;;;;;;5021485;28;20231;-73
2022/05/17 12:05:38;;;;;;;3.87;3.50;;;28.50;49.40;;;;;;5003512;28;20499;-74
2022/05/17 12:08:28;;;;;;;2.57;2.37;;;28.60;50.30;;;;;;5007643;28;20902;-72
2022/05/17 12:11:05;;;;;;;2.60;2.40;;;28.60;49.20;;;;;;5009308;28;20815;-69
2022/05/17 12:13:38;;;;;;;2.07;1.97;;;28.40;47.80;;;;;;5009383;28;20472;-71
2022/05/17 12:16:08;;;;;;;3.53;3.27;;;28.20;48.10;;;;;;5005745;28;20535;-72
2022/05/17 12:18:51;;;;;;;4.17;3.20;;;27.60;50.00;;;;;;5008350;28;20981;-73
2022/05/17 12:21:44;;;;;;;3.03;2.77;;;27.30;50.70;;;;;;5007107;28;20794;-68
2022/05/17 12:24:40;;;;;;;2.80;2.50;;;27.20;50.50;;;;;;5006829;28;20939;-74
2022/05/17 12:27:21;;;;;;;2.73;2.20;;;27.00;49.70;;;;;;5011259;28;21113;-74
2022/05/17 12:32:37;;;;;;;3.23;2.30;;;27.10;49.90;;;;;;5005177;28;20827;-68
2022/05/17 12:35:05;;;;;;;3.27;2.30;;;27.00;50.20;;;;;;5013546;28;20863;-69
2022/05/17 12:37:31;;;;;;;2.90;2.43;;;26.90;51.10;;;;;;5012324;28;20483;-72
2022/05/17 12:43:07;;;;;;;4.10;2.43;;;27.00;52.10;;;;;;5012974;28;20881;-70
2022/05/17 12:45:44;;;;;;;2.53;2.03;;;26.90;51.70;;;;;;5007931;28;20969;-66
2022/05/17 12:48:32;;;;;;;2.03;1.77;;;26.90;50.60;;;;;;5008023;28;20522;-68
2022/05/17 12:51:01;;;;;;;3.00;2.50;;;26.90;49.50;;;;;;5011677;28;20433;-68
2022/05/17 12:53:47;;;;;;;2.33;2.13;;;27.00;51.50;;;;;;5011993;28;20437;-67
2022/05/17 12:56:34;;;;;;;2.53;2.20;;;27.00;51.30;;;;;;5005065;28;20476;-65
2022/05/17 12:59:03;;;;;;;3.43;1.97;;;26.90;50.90;;;;;;5005239;28;20481;-69
2022/05/17 13:01:42;;;;;;;3.00;1.77;;;26.80;51.00;;;;;;5027506;28;20502;-65
2022/05/17 13:04:14;;;;;;;2.10;2.00;;;26.70;51.20;;;;;;5010509;28;20602;-70
2022/05/17 13:06:44;;;;;;;2.13;2.00;;;26.70;52.00;;;;;;5013655;28;20498;-67
2022/05/17 13:09:19;;;;;;;3.20;2.73;;;26.60;51.20;;;;;;5009721;28;20461;-66
2022/05/17 13:11:45;;;;;;;3.87;2.87;;;26.70;51.00;;;;;;5008756;28;20453;-72
2022/05/17 13:14:27;;;;;;;1.90;1.80;;;26.70;51.70;;;;;;5012148;28;20452;-73
2022/05/17 13:16:56;;;;;;;1.60;1.50;;;26.80;49.10;;;;;;5012076;28;20457;-68
2022/05/17 13:19:26;;;;;;;3.93;1.73;;;26.90;49.30;;;;;;5011913;28;20567;-70